Time;durP1;ratioP1;P1;durP2;ratioP2;P2;SDS_P1;SDS_P2;PMS_P1;PMS_P2;Temp;Humidity;BMP_temperature;BMP_pressure;BME280_temperature;BME280_humidity;BME280_pressure;Samples;Min_cycle;Max_cycle;Signal;HPM_P1;HPM_P2
2022/05/08 01:10:51;;;;;;;;;;;;;;;;;;;;;
2022/05/08 02:11:51;;;;;;;7.63;1.75;;;11.40;1.00;;;;;;6192084;23;20016;-95
2022/05/08 04:12:54;;;;;;;7.22;1.08;;;10.60;1.00;;;;;;6244077;22;20513;-93
2022/05/08 04:58:31;;;;;;;8.82;1.67;;;10.40;1.00;;;;;;6232350;22;20018;-93
2022/05/08 05:02:14;;;;;;;;;;;;;;;;;;;;;
2022/05/08 05:18:02;;;;;;;7.43;1.30;;;10.40;1.00;;;;;;6245663;22;20407;-95
2022/05/08 05:21:38;;;;;;;6.38;0.80;;;10.10;1.00;;;;;;6201742;22;20088;-96
2022/05/08 05:32:22;;;;;;;7.88;1.48;;;10.30;1.00;;;;;;6156655;23;20104;-93
2022/05/08 05:34:50;;;;;;;2.67;0.93;;;10.40;1.00;;;;;;6130871;23;20117;-88
2022/05/08 05:37:23;;;;;;;4.00;0.90;;;10.40;1.00;;;;;;6153077;23;20126;-92
2022/05/08 05:39:50;;;;;;;3.67;1.27;;;10.20;1.00;;;;;;6219331;22;20346;-91
2022/05/08 05:42:21;;;;;;;6.38;1.60;;;10.20;1.00;;;;;;6224828;22;20020;-89
2022/05/08 05:44:48;;;;;;;7.35;1.42;;;10.10;1.00;;;;;;6249243;22;20039;-89
2022/05/08 05:50:01;;;;;;;8.77;1.77;;;10.10;1.00;;;;;;6249306;22;20022;-89
2022/05/08 06:34:28;;;;;;;10.38;1.98;;;10.40;1.00;;;;;;6195439;22;20699;-89
2022/05/08 07:16:22;;;;;;;7.75;1.88;;;10.70;1.00;;;;;;6157604;23;20068;-92
2022/05/08 07:18:49;;;;;;;4.53;1.55;;;10.70;1.00;;;;;;6130332;23;20339;-91
2022/05/08 07:21:16;;;;;;;6.53;1.52;;;10.60;1.00;;;;;;6130014;23;20021;-91
2022/05/08 10:00:23;;;;;;;3.80;0.93;;;12.40;1.00;;;;;;6273668;22;20062;-92
2022/05/08 10:23:39;;;;;;;2.90;1.17;;;12.70;1.00;;;;;;6246742;23;20019;-88
2022/05/08 10:27:08;;;;;;;3.47;0.95;;;12.90;1.00;;;;;;6220289;23;20112;-84
2022/05/08 10:39:58;;;;;;;;;;;;;;;;;;;;;
2022/05/08 15:23:04;;;;;;;5.50;1.00;;;20.70;1.00;;;;;;6249623;22;20031;-95
2022/05/08 15:25:56;;;;;;;5.00;1.90;;;21.60;1.00;;;;;;6254095;22;20012;-87
2022/05/08 15:28:23;;;;;;;5.53;0.88;;;19.90;1.00;;;;;;6277981;22;20431;-86
2022/05/08 15:30:55;;;;;;;6.60;1.65;;;20.40;1.00;;;;;;6251361;22;20016;-93
2022/05/08 15:33:24;;;;;;;4.43;0.90;;;19.80;1.00;;;;;;6277754;22;20347;-93
2022/05/08 16:02:30;;;;;;;2.75;0.80;;;20.30;1.00;;;;;;6248150;22;20027;-89
2022/05/08 18:08:48;;;;;;;6.88;1.73;;;16.50;1.00;;;;;;6194738;23;20036;-93
2022/05/08 18:11:53;;;;;;;7.65;1.40;;;15.60;1.00;;;;;;6247439;23;20028;-88
2022/05/08 19:53:20;;;;;;;9.50;1.63;;;13.60;1.00;;;;;;6246150;22;20070;-90
2022/05/08 19:55:47;;;;;;;4.10;1.30;;;13.20;1.00;;;;;;6198749;23;20027;-89
2022/05/08 19:58:15;;;;;;;7.25;1.50;;;13.40;1.00;;;;;;6224092;23;20020;-90
2022/05/08 20:00:42;;;;;;;3.30;0.98;;;13.50;1.00;;;;;;6226773;23;20076;-89
2022/05/08 20:03:11;;;;;;;4.30;1.17;;;14.00;1.00;;;;;;6222233;23;20020;-89
2022/05/08 20:05:39;;;;;;;4.57;1.30;;;14.10;1.00;;;;;;6194813;23;20503;-89
2022/05/08 20:08:19;;;;;;;2.85;0.80;;;14.20;1.00;;;;;;6246746;23;20095;-91
2022/05/08 20:11:50;;;;;;;8.05;1.15;;;13.80;1.00;;;;;;6245448;23;20087;-91
2022/05/08 20:14:26;;;;;;;3.90;1.52;;;13.30;1.00;;;;;;6196340;23;20016;-91
2022/05/08 20:17:05;;;;;;;4.07;1.88;;;13.10;1.00;;;;;;6220493;23;20044;-90
2022/05/08 20:19:39;;;;;;;5.25;1.40;;;13.00;1.00;;;;;;6189818;23;20046;-91
2022/05/08 20:22:20;;;;;;;5.35;1.70;;;12.70;1.00;;;;;;6197781;23;20054;-91
2022/05/08 20:24:57;;;;;;;7.18;1.67;;;13.50;1.00;;;;;;6220740;23;20499;-91
2022/05/08 20:27:27;;;;;;;6.45;1.33;;;13.60;1.00;;;;;;6247086;23;20012;-92
2022/05/08 20:30:00;;;;;;;3.50;1.50;;;13.80;1.00;;;;;;6246808;23;20044;-91
2022/05/08 20:32:29;;;;;;;3.20;0.95;;;13.80;1.00;;;;;;6220054;23;20400;-91
2022/05/08 20:34:57;;;;;;;3.33;1.08;;;13.80;1.00;;;;;;6195106;23;20055;-90
2022/05/08 20:37:26;;;;;;;10.15;1.38;;;13.80;1.00;;;;;;6248441;23;20369;-90
2022/05/08 20:39:59;;;;;;;3.53;1.08;;;13.40;1.00;;;;;;6221400;23;20019;-91
2022/05/08 20:42:37;;;;;;;7.63;1.30;;;13.40;1.00;;;;;;6222829;23;20012;-91
2022/05/08 20:45:08;;;;;;;6.38;1.13;;;12.70;1.00;;;;;;6246049;22;20257;-91
2022/05/08 20:47:35;;;;;;;5.55;1.58;;;13.20;1.00;;;;;;6195765;23;20027;-91
2022/05/08 20:50:06;;;;;;;2.22;1.20;;;13.50;1.00;;;;;;6247952;23;20027;-91
2022/05/08 20:52:38;;;;;;;8.75;0.80;;;13.10;1.00;;;;;;6246649;22;20020;-91
2022/05/08 20:55:16;;;;;;;4.30;1.50;;;13.60;1.00;;;;;;6220122;23;20023;-91
2022/05/08 20:57:53;;;;;;;5.05;1.30;;;13.30;1.00;;;;;;6197481;23;20027;-91
2022/05/08 21:00:23;;;;;;;4.70;1.17;;;13.10;1.00;;;;;;6220470;23;20347;-91
2022/05/08 21:02:57;;;;;;;3.63;0.95;;;13.60;1.00;;;;;;6222048;23;20019;-91
2022/05/08 21:08:11;;;;;;;3.05;0.90;;;12.90;1.00;;;;;;6199135;23;20013;-91
2022/05/08 21:10:39;;;;;;;3.78;0.82;;;13.00;1.00;;;;;;6219835;23;20025;-91
2022/05/08 21:13:07;;;;;;;4.63;1.48;;;13.00;1.00;;;;;;6169015;23;20070;-90
2022/05/08 21:15:34;;;;;;;4.53;0.90;;;12.70;1.00;;;;;;6220021;23;20436;-91
2022/05/08 21:18:02;;;;;;;1.60;0.80;;;13.20;1.00;;;;;;6196211;23;20027;-90
2022/05/08 21:20:30;;;;;;;8.68;1.33;;;13.00;1.00;;;;;;6194352;23;20020;-91
2022/05/08 21:22:57;;;;;;;5.20;2.00;;;13.00;1.00;;;;;;6194503;23;20034;-90
2022/05/08 21:25:24;;;;;;;2.65;1.02;;;13.10;1.00;;;;;;6246145;22;20473;-90
2022/05/08 21:27:56;;;;;;;4.78;1.05;;;12.90;1.00;;;;;;6219600;23;20020;-91
2022/05/08 21:30:23;;;;;;;7.53;1.73;;;12.80;1.00;;;;;;6194221;23;20020;-91
2022/05/08 21:32:50;;;;;;;2.00;0.95;;;13.20;1.00;;;;;;6246489;23;20027;-91
2022/05/08 21:35:19;;;;;;;3.00;0.93;;;12.90;1.00;;;;;;6220505;23;20055;-90
2022/05/08 21:37:46;;;;;;;2.70;0.82;;;13.00;1.00;;;;;;6195146;23;20028;-92
2022/05/08 21:40:14;;;;;;;5.68;1.88;;;13.10;1.00;;;;;;6220451;23;20031;-91
2022/05/08 21:42:41;;;;;;;2.63;0.90;;;13.20;1.00;;;;;;6198940;23;20024;-91
2022/05/08 21:45:09;;;;;;;11.38;1.05;;;13.30;1.00;;;;;;6197759;23;20028;-92
2022/05/08 21:47:36;;;;;;;2.65;0.90;;;13.20;1.00;;;;;;6173607;23;20020;-90
2022/05/08 21:50:03;;;;;;;6.53;1.10;;;13.00;1.00;;;;;;6223554;23;20428;-90
2022/05/08 21:52:31;;;;;;;6.68;1.00;;;12.40;1.00;;;;;;6197830;23;20035;-91
2022/05/08 21:55:01;;;;;;;4.15;1.10;;;12.30;1.00;;;;;;6221926;23;20439;-91
2022/05/08 21:57:34;;;;;;;4.57;0.90;;;12.90;1.00;;;;;;6169435;23;20021;-91
2022/05/08 22:00:09;;;;;;;2.13;1.00;;;13.10;1.00;;;;;;6248570;23;20436;-91
2022/05/08 22:02:40;;;;;;;8.63;1.17;;;12.20;1.00;;;;;;6248373;23;20024;-91
2022/05/08 22:05:07;;;;;;;10.00;1.92;;;12.30;1.00;;;;;;6196856;23;20106;-91
2022/05/08 22:07:35;;;;;;;6.72;1.70;;;12.70;1.00;;;;;;6196389;23;20059;-91
2022/05/08 22:10:02;;;;;;;5.47;1.52;;;12.60;1.00;;;;;;6196257;23;20340;-91
2022/05/08 22:12:30;;;;;;;9.30;1.35;;;12.70;1.00;;;;;;6197433;23;20020;-93
2022/05/08 22:14:58;;;;;;;4.68;1.58;;;11.80;1.00;;;;;;6247850;22;20008;-92
2022/05/08 22:17:26;;;;;;;3.53;1.33;;;12.10;1.00;;;;;;6197343;23;20023;-91
2022/05/08 22:19:54;;;;;;;5.85;1.77;;;11.90;1.00;;;;;;6221589;23;20016;-92
2022/05/08 22:22:21;;;;;;;4.28;1.08;;;12.40;1.00;;;;;;6196045;23;20099;-91
2022/05/08 22:24:48;;;;;;;3.30;1.20;;;12.10;1.00;;;;;;6221583;23;20024;-92
2022/05/08 22:27:15;;;;;;;1.90;1.00;;;12.40;1.00;;;;;;6197100;23;20012;-92
2022/05/08 22:29:43;;;;;;;4.57;1.10;;;12.40;1.00;;;;;;6221581;23;20028;-92
2022/05/08 22:32:10;;;;;;;4.10;0.80;;;12.70;1.00;;;;;;6221604;23;20020;-92
2022/05/08 22:34:37;;;;;;;4.18;1.00;;;12.30;1.00;;;;;;6221167;23;20431;-91
2022/05/08 22:37:05;;;;;;;2.67;1.27;;;12.10;1.00;;;;;;6221946;23;20447;-92
2022/05/08 22:39:32;;;;;;;2.20;1.17;;;12.10;1.00;;;;;;6197083;23;20020;-91
2022/05/08 22:41:59;;;;;;;2.97;1.52;;;12.20;1.00;;;;;;6196972;23;20024;-92
2022/05/08 22:44:26;;;;;;;6.35;0.90;;;12.50;1.00;;;;;;6221988;23;20020;-92
2022/05/08 22:46:54;;;;;;;9.27;1.27;;;12.20;1.00;;;;;;6222393;23;20020;-91
2022/05/08 22:49:21;;;;;;;3.28;1.05;;;12.10;1.00;;;;;;6196686;23;20071;-92
2022/05/08 22:51:48;;;;;;;4.57;0.98;;;12.40;1.00;;;;;;6196248;23;20139;-93
2022/05/08 22:54:15;;;;;;;3.25;1.13;;;12.70;1.00;;;;;;6196180;23;20436;-92
2022/05/08 22:56:42;;;;;;;3.28;1.15;;;12.40;1.00;;;;;;6221165;23;20352;-92
2022/05/08 22:59:10;;;;;;;6.93;1.33;;;11.70;1.00;;;;;;6220691;23;20078;-91
2022/05/08 23:01:37;;;;;;;3.45;1.67;;;11.50;1.00;;;;;;6195726;23;20016;-92
2022/05/08 23:04:08;;;;;;;5.00;1.65;;;11.40;1.00;;;;;;6195720;22;20481;-91
2022/05/08 23:06:36;;;;;;;10.27;1.48;;;11.40;1.00;;;;;;6220830;23;20510;-92
2022/05/08 23:09:04;;;;;;;4.97;1.17;;;11.50;1.00;;;;;;6195756;23;20020;-92
2022/05/08 23:11:31;;;;;;;6.88;1.60;;;12.00;1.00;;;;;;6195965;23;20020;-92
2022/05/08 23:13:59;;;;;;;1.80;0.90;;;11.80;1.00;;;;;;6220505;22;20408;-91
2022/05/08 23:16:26;;;;;;;2.95;1.23;;;12.10;1.00;;;;;;6248276;23;20020;-92
2022/05/08 23:18:54;;;;;;;9.45;1.55;;;12.30;1.00;;;;;;6195638;23;20023;-91
2022/05/08 23:21:21;;;;;;;2.50;1.55;;;11.90;1.00;;;;;;6171057;23;20020;-91
2022/05/08 23:23:50;;;;;;;6.38;2.13;;;12.10;1.00;;;;;;6196429;22;20091;-92
2022/05/08 23:26:17;;;;;;;9.98;1.70;;;12.20;1.00;;;;;;6196113;23;20012;-92
2022/05/08 23:28:46;;;;;;;3.42;1.30;;;12.00;1.00;;;;;;6171592;23;20039;-92
2022/05/08 23:31:13;;;;;;;4.85;1.25;;;11.90;1.00;;;;;;6220385;23;20101;-92
2022/05/08 23:33:40;;;;;;;3.50;1.10;;;12.00;1.00;;;;;;6247129;23;20008;-92
2022/05/08 23:36:13;;;;;;;6.38;1.88;;;11.70;1.00;;;;;;6195784;23;20027;-92
2022/05/08 23:38:42;;;;;;;2.92;1.50;;;11.30;1.00;;;;;;6220677;23;20035;-92
2022/05/08 23:41:11;;;;;;;10.10;1.88;;;11.40;1.00;;;;;;6220622;23;20023;-92
2022/05/08 23:43:38;;;;;;;7.40;1.08;;;11.10;1.00;;;;;;6220236;23;20024;-92
2022/05/08 23:46:05;;;;;;;5.85;1.42;;;11.30;1.00;;;;;;6220293;23;20016;-91
2022/05/08 23:48:35;;;;;;;4.32;1.73;;;11.60;1.00;;;;;;6195733;23;20071;-92
2022/05/08 23:54:04;;;;;;;3.28;1.00;;;11.70;1.00;;;;;;6100039;23;20564;-92
2022/05/08 23:56:31;;;;;;;4.35;1.65;;;11.60;1.00;;;;;;6178633;23;20048;-93
2022/05/08 23:59:18;;;;;;;5.35;1.83;;;11.80;1.00;;;;;;6221446;23;20395;-92
